Time;durP1;ratioP1;P1;durP2;ratioP2;P2;SDS_P1;SDS_P2;PMS_P1;PMS_P2;Temp;Humidity;BMP_temperature;BMP_pressure;BME280_temperature;BME280_humidity;BME280_pressure;Samples;Min_cycle;Max_cycle;Signal;HPM_P1;HPM_P2
2023/10/11 00:02:14;;;;;;;7.43;2.10;;;17.50;50.10;;;;;;2368098;53;21726;-64
2023/10/11 00:04:41;;;;;;;6.20;1.92;;;17.50;50.20;;;;;;2367873;53;20938;-64
2023/10/11 00:07:09;;;;;;;5.85;1.55;;;17.50;50.30;;;;;;2368408;53;20938;-64
2023/10/11 00:09:35;;;;;;;3.70;1.48;;;17.50;50.40;;;;;;2620085;52;20938;-64
2023/10/11 00:12:03;;;;;;;4.57;1.80;;;17.40;50.30;;;;;;2613905;52;20913;-64
2023/10/11 00:14:39;;;;;;;4.87;1.80;;;17.40;50.40;;;;;;2613192;52;20994;-64
2023/10/11 00:17:08;;;;;;;6.70;1.95;;;17.40;50.40;;;;;;2367759;53;20946;-66
2023/10/11 00:19:34;;;;;;;5.82;1.70;;;17.40;50.40;;;;;;2619751;52;20902;-65
2023/10/11 00:22:01;;;;;;;4.62;1.80;;;17.40;50.40;;;;;;2367130;53;20982;-64
2023/10/11 00:24:29;;;;;;;3.78;1.62;;;17.30;50.40;;;;;;2364490;53;20998;-64
2023/10/11 00:26:56;;;;;;;4.90;1.73;;;17.30;50.40;;;;;;2367748;53;21306;-66
2023/10/11 00:29:23;;;;;;;4.97;1.80;;;17.30;50.40;;;;;;2367473;53;20930;-64
2023/10/11 00:31:51;;;;;;;5.40;2.00;;;17.10;50.30;;;;;;2368058;53;21503;-66
2023/10/11 00:34:18;;;;;;;6.43;1.65;;;17.20;50.60;;;;;;2366704;53;20914;-63
2023/10/11 00:36:49;;;;;;;3.10;1.50;;;17.20;50.60;;;;;;2619654;52;20938;-64
2023/10/11 00:39:17;;;;;;;4.43;1.73;;;17.30;50.60;;;;;;2366652;53;20923;-64
2023/10/11 00:41:56;;;;;;;4.87;2.03;;;17.20;50.60;;;;;;2619349;52;20980;-64
2023/10/11 00:44:22;;;;;;;5.18;2.08;;;17.10;50.90;;;;;;2367677;53;20989;-64
2023/10/11 00:46:59;;;;;;;3.97;1.58;;;17.20;50.80;;;;;;2367992;53;21851;-65
2023/10/11 00:49:36;;;;;;;4.40;1.87;;;17.10;50.80;;;;;;2603785;52;20977;-66
2023/10/11 00:52:06;;;;;;;5.65;1.83;;;17.10;50.90;;;;;;2371143;53;21379;-64
2023/10/11 00:54:34;;;;;;;4.45;2.10;;;17.00;50.80;;;;;;2345093;54;20915;-64
2023/10/11 00:57:00;;;;;;;4.28;1.67;;;17.00;50.80;;;;;;2367203;53;21046;-66
2023/10/11 00:59:28;;;;;;;3.75;1.75;;;17.00;50.80;;;;;;2619672;52;20914;-64
2023/10/11 01:01:55;;;;;;;5.53;2.12;;;17.00;50.90;;;;;;2368159;53;20950;-64
2023/10/11 01:04:22;;;;;;;5.40;2.17;;;16.90;50.90;;;;;;2619632;52;20938;-64
2023/10/11 01:06:48;;;;;;;5.68;2.00;;;16.90;51.50;;;;;;2367734;53;20986;-64
2023/10/11 01:09:17;;;;;;;4.57;2.08;;;16.90;51.00;;;;;;2619164;52;21805;-64
2023/10/11 01:11:46;;;;;;;5.12;2.33;;;16.90;51.00;;;;;;2368295;53;21451;-66
2023/10/11 01:14:12;;;;;;;5.18;2.12;;;16.90;51.10;;;;;;2367553;53;20934;-67
2023/10/11 01:16:38;;;;;;;4.10;1.80;;;16.80;51.10;;;;;;2367582;53;21895;-66
2023/10/11 01:19:11;;;;;;;6.93;2.15;;;16.80;51.10;;;;;;2368369;53;21094;-68
2023/10/11 01:21:38;;;;;;;4.70;1.60;;;16.80;51.70;;;;;;2370452;53;20994;-66
2023/10/11 01:24:08;;;;;;;4.45;1.85;;;16.80;51.10;;;;;;2367634;53;20982;-66
2023/10/11 01:26:35;;;;;;;3.90;1.73;;;16.70;51.00;;;;;;2612993;52;21013;-68
2023/10/11 01:29:05;;;;;;;7.05;1.90;;;16.70;51.00;;;;;;2363503;53;20974;-66
2023/10/11 01:31:33;;;;;;;3.87;1.65;;;16.70;51.10;;;;;;2367180;53;21363;-66
2023/10/11 01:33:59;;;;;;;4.70;1.85;;;16.60;51.00;;;;;;2368344;53;20917;-69
2023/10/11 01:36:26;;;;;;;4.45;1.87;;;16.60;51.10;;;;;;2368671;53;20922;-66
2023/10/11 01:38:52;;;;;;;4.78;2.05;;;16.60;51.20;;;;;;2367786;53;20927;-66
2023/10/11 01:41:20;;;;;;;5.85;2.30;;;16.60;51.30;;;;;;2366345;53;21053;-66
2023/10/11 01:43:46;;;;;;;6.18;2.17;;;16.60;51.50;;;;;;2366702;53;20978;-67
2023/10/11 01:46:15;;;;;;;3.95;1.75;;;16.50;51.50;;;;;;2366596;53;21471;-67
2023/10/11 01:48:44;;;;;;;5.53;1.80;;;16.50;51.40;;;;;;2367810;53;21474;-66
2023/10/11 01:51:21;;;;;;;6.55;2.00;;;16.50;51.40;;;;;;2367142;53;21380;-66
2023/10/11 01:53:48;;;;;;;3.72;1.52;;;16.50;51.50;;;;;;2367858;53;20990;-63
2023/10/11 01:56:14;;;;;;;4.25;2.12;;;16.50;51.40;;;;;;2366499;53;21018;-64
2023/10/11 01:58:42;;;;;;;5.80;1.90;;;16.40;51.30;;;;;;2367763;53;20997;-64
2023/10/11 02:01:22;;;;;;;4.05;1.87;;;16.40;51.40;;;;;;2620522;52;20934;-66
2023/10/11 02:03:53;;;;;;;4.18;1.98;;;16.40;51.80;;;;;;2368107;53;21237;-67
2023/10/11 02:06:21;;;;;;;;;;;16.40;51.60;;;;;;2623585;52;21463;-68
2023/10/11 02:08:47;;;;;;;3.72;1.15;;;16.40;51.80;;;;;;2367558;53;20131;-67
2023/10/11 02:11:16;;;;;;;4.25;2.00;;;16.30;51.30;;;;;;2619554;52;20973;-67
2023/10/11 02:13:42;;;;;;;4.03;1.90;;;16.30;51.40;;;;;;2367980;53;20918;-68
2023/10/11 02:16:14;;;;;;;4.78;1.62;;;16.30;51.50;;;;;;2367785;53;20941;-66
2023/10/11 02:18:41;;;;;;;5.03;1.83;;;16.30;51.60;;;;;;2620683;52;21483;-66
2023/10/11 02:21:07;;;;;;;3.72;1.55;;;16.20;51.50;;;;;;2360033;53;20950;-66
2023/10/11 02:23:40;;;;;;;4.15;1.65;;;16.20;51.60;;;;;;2367407;53;20910;-66
2023/10/11 02:26:18;;;;;;;4.40;1.90;;;16.20;51.60;;;;;;2364177;54;21268;-67
2023/10/11 02:28:45;;;;;;;4.10;1.58;;;16.20;51.60;;;;;;2368685;53;20926;-66
2023/10/11 02:31:14;;;;;;;4.53;1.70;;;16.10;51.60;;;;;;2618898;52;20903;-66
2023/10/11 02:33:40;;;;;;;3.70;1.70;;;16.20;51.70;;;;;;2367934;53;21417;-66
2023/10/11 02:36:17;;;;;;;7.53;2.25;;;16.10;51.60;;;;;;2368548;53;20930;-68
2023/10/11 02:38:54;;;;;;;5.05;1.87;;;16.10;51.70;;;;;;2368493;53;20923;-68
2023/10/11 02:41:24;;;;;;;4.65;2.20;;;16.10;51.80;;;;;;2367106;53;21009;-66
2023/10/11 02:43:54;;;;;;;5.12;1.70;;;16.00;51.70;;;;;;2368618;53;21304;-66
2023/10/11 02:46:23;;;;;;;4.32;1.60;;;16.00;51.70;;;;;;2367428;53;20996;-66
2023/10/11 02:48:54;;;;;;;4.65;1.62;;;16.00;51.70;;;;;;2368408;53;21394;-66
2023/10/11 02:51:24;;;;;;;4.87;1.83;;;16.00;51.70;;;;;;2619419;52;20927;-68
2023/10/11 02:53:54;;;;;;;4.72;1.90;;;15.90;51.60;;;;;;2620644;52;20955;-66
2023/10/11 02:56:24;;;;;;;4.10;1.70;;;15.90;51.70;;;;;;2367766;53;21391;-68
2023/10/11 02:58:50;;;;;;;6.57;2.40;;;15.90;51.80;;;;;;2368326;53;20950;-65
2023/10/11 03:01:20;;;;;;;4.35;1.98;;;15.90;51.90;;;;;;2367958;53;20970;-68
2023/10/11 03:03:52;;;;;;;4.55;2.08;;;15.80;51.90;;;;;;2367986;53;20978;-64
2023/10/11 03:06:19;;;;;;;4.28;1.60;;;15.80;51.90;;;;;;2367685;53;21001;-67
2023/10/11 03:08:46;;;;;;;3.90;1.48;;;15.80;51.90;;;;;;2368444;53;21014;-66
2023/10/11 03:11:18;;;;;;;3.85;1.83;;;15.80;51.90;;;;;;2368226;53;20958;-66
2023/10/11 03:13:48;;;;;;;6.07;2.80;;;15.80;52.00;;;;;;2368656;53;20946;-63
2023/10/11 03:16:16;;;;;;;4.65;1.77;;;15.80;52.10;;;;;;2367516;53;21479;-68
2023/10/11 03:18:46;;;;;;;5.32;2.28;;;15.70;52.10;;;;;;2620059;52;20970;-66
2023/10/11 03:21:17;;;;;;;5.00;1.80;;;15.70;52.10;;;;;;2368449;53;20965;-67
2023/10/11 03:23:48;;;;;;;4.47;2.40;;;15.70;52.20;;;;;;2368027;53;20906;-69
2023/10/11 03:26:38;;;;;;;5.45;1.90;;;15.70;52.20;;;;;;2611893;52;21008;-69
2023/10/11 03:29:04;;;;;;;4.25;1.73;;;15.70;52.20;;;;;;2367097;53;20975;-68
2023/10/11 03:31:40;;;;;;;6.37;1.92;;;15.70;52.20;;;;;;2367289;53;21117;-66
2023/10/11 03:34:12;;;;;;;5.47;2.20;;;15.60;52.20;;;;;;2620164;52;20977;-66
2023/10/11 03:36:51;;;;;;;5.12;1.92;;;15.60;52.20;;;;;;2368771;53;21277;-67
2023/10/11 03:39:41;;;;;;;4.07;1.70;;;15.60;52.30;;;;;;2366432;53;21543;-69
2023/10/11 03:42:14;;;;;;;3.20;1.37;;;15.70;52.40;;;;;;2368259;53;21013;-66
2023/10/11 03:44:46;;;;;;;3.97;1.90;;;15.60;52.20;;;;;;2350065;53;21283;-68
2023/10/11 03:47:22;;;;;;;3.80;1.85;;;15.50;52.20;;;;;;2340696;53;20992;-68
2023/10/11 03:49:51;;;;;;;5.95;1.67;;;15.50;52.30;;;;;;2340460;53;20933;-67
2023/10/11 03:52:30;;;;;;;4.30;1.92;;;15.50;52.30;;;;;;2585527;52;21093;-66
2023/10/11 03:55:09;;;;;;;4.47;1.90;;;15.50;52.60;;;;;;2340502;53;21259;-67
2023/10/11 03:57:42;;;;;;;5.75;1.77;;;15.40;52.40;;;;;;2586604;52;20982;-66
2023/10/11 04:00:25;;;;;;;7.35;1.92;;;15.40;52.50;;;;;;2586751;52;20913;-66
2023/10/11 04:02:57;;;;;;;4.72;1.65;;;15.40;52.50;;;;;;2348870;53;21495;-66
2023/10/11 04:05:34;;;;;;;5.05;2.05;;;15.40;52.40;;;;;;2595887;52;21777;-67
2023/10/11 04:08:05;;;;;;;5.28;1.83;;;15.40;52.60;;;;;;2342180;53;21469;-66
2023/10/11 04:10:46;;;;;;;5.68;1.83;;;15.30;52.60;;;;;;2355809;53;20949;-66
2023/10/11 04:13:15;;;;;;;4.55;2.00;;;15.40;52.80;;;;;;2341610;54;21032;-66
2023/10/11 04:15:42;;;;;;;4.68;2.08;;;15.30;52.60;;;;;;2357443;53;21609;-66
2023/10/11 04:18:20;;;;;;;4.45;2.10;;;15.30;52.60;;;;;;2366844;53;20953;-66
2023/10/11 04:20:59;;;;;;;5.95;2.33;;;15.30;52.70;;;;;;2364095;53;20898;-66
2023/10/11 04:23:27;;;;;;;6.37;2.15;;;15.30;52.70;;;;;;2611369;52;21806;-66
2023/10/11 04:25:55;;;;;;;5.35;1.90;;;15.30;52.80;;;;;;2366856;53;21434;-66
2023/10/11 04:28:23;;;;;;;4.32;2.03;;;15.30;52.80;;;;;;2367621;53;20969;-66
2023/10/11 04:30:56;;;;;;;6.30;2.65;;;15.30;52.90;;;;;;2619784;52;21519;-66
2023/10/11 04:33:23;;;;;;;4.12;1.73;;;15.20;52.80;;;;;;2613988;52;20981;-66
2023/10/11 04:35:58;;;;;;;4.15;1.75;;;15.20;52.80;;;;;;2364461;53;20941;-66
2023/10/11 04:38:24;;;;;;;5.30;2.05;;;15.20;52.80;;;;;;2609546;52;21418;-66
2023/10/11 04:41:02;;;;;;;6.80;2.15;;;15.30;52.80;;;;;;2620449;52;20983;-66
2023/10/11 04:43:37;;;;;;;4.70;1.75;;;15.20;53.00;;;;;;2367320;53;21720;-66
2023/10/11 04:46:14;;;;;;;4.93;2.20;;;15.10;52.90;;;;;;2368247;53;20934;-66
2023/10/11 04:48:41;;;;;;;5.43;1.98;;;15.20;53.00;;;;;;2368898;53;20994;-66
2023/10/11 04:51:21;;;;;;;6.00;2.05;;;15.10;52.90;;;;;;2620454;52;20958;-66
2023/10/11 04:53:58;;;;;;;5.00;2.28;;;15.10;53.00;;;;;;2368580;53;20978;-66
2023/10/11 05:05:58;;;;;;;4.00;1.85;;;15.10;53.00;;;;;;2368729;53;21019;-67
2023/10/11 05:08:51;;;;;;;5.37;1.77;;;15.00;52.60;;;;;;2368278;53;20942;-66
2023/10/11 05:11:36;;;;;;;5.45;2.08;;;15.00;52.70;;;;;;2369845;53;21740;-66
2023/10/11 05:16:49;;;;;;;4.15;1.70;;;15.00;52.90;;;;;;2619791;52;20930;-67
2023/10/11 05:19:20;;;;;;;4.10;1.67;;;14.90;52.80;;;;;;2367452;53;21047;-66
2023/10/11 05:21:52;;;;;;;7.18;2.12;;;14.90;52.80;;;;;;2367760;53;20913;-66
2023/10/11 05:25:16;;;;;;;7.05;2.17;;;14.90;52.90;;;;;;2615897;52;20974;-66
2023/10/11 05:28:07;;;;;;;5.90;1.98;;;14.90;53.00;;;;;;2351323;53;21352;-66
2023/10/11 05:30:34;;;;;;;4.45;1.90;;;14.90;53.00;;;;;;2339108;53;20981;-66
2023/10/11 05:52:17;;;;;;;5.47;2.08;;;14.70;53.00;;;;;;2345897;54;20986;-66
2023/10/11 05:54:45;;;;;;;4.03;1.80;;;14.70;53.00;;;;;;2368520;53;21500;-66
2023/10/11 05:57:30;;;;;;;5.40;2.35;;;14.60;53.00;;;;;;2621250;52;21039;-66
2023/10/11 06:00:02;;;;;;;3.95;1.58;;;14.60;53.40;;;;;;2368572;53;20926;-66
2023/10/11 06:02:29;;;;;;;5.97;2.40;;;14.60;53.10;;;;;;2368199;53;20933;-66
2023/10/11 06:04:56;;;;;;;5.10;2.40;;;14.60;53.20;;;;;;2615549;52;20934;-66
2023/10/11 06:07:22;;;;;;;4.82;1.80;;;14.50;53.20;;;;;;2368429;53;20954;-67
2023/10/11 06:09:52;;;;;;;5.00;2.12;;;14.60;53.30;;;;;;2368286;53;20931;-66
2023/10/11 06:13:07;;;;;;;6.95;2.15;;;14.60;53.40;;;;;;2620784;52;20985;-66
2023/10/11 06:15:35;;;;;;;7.12;2.10;;;14.50;53.60;;;;;;2367147;53;21009;-66
2023/10/11 06:18:01;;;;;;;4.43;1.95;;;14.60;53.40;;;;;;2620960;52;21379;-66
2023/10/11 06:20:28;;;;;;;5.40;2.30;;;14.50;53.30;;;;;;2368853;53;20941;-66
2023/10/11 06:22:54;;;;;;;5.90;2.42;;;14.50;53.60;;;;;;2368467;55;20974;-66
2023/10/11 06:26:28;;;;;;;5.47;2.47;;;14.50;53.70;;;;;;2620417;52;20934;-66
2023/10/11 06:29:03;;;;;;;;;;;14.50;53.70;;;;;;2625005;52;21290;-66
2023/10/11 06:31:52;;;;;;;5.45;1.70;;;14.50;53.90;;;;;;2368087;53;20121;-66
2023/10/11 06:34:26;;;;;;;4.03;1.98;;;14.50;53.60;;;;;;2371985;53;21033;-66
2023/10/11 06:36:56;;;;;;;4.20;1.90;;;14.50;53.70;;;;;;2621156;52;21879;-66
2023/10/11 06:45:28;;;;;;;3.92;1.90;;;14.50;54.00;;;;;;2620477;52;21645;-66
2023/10/11 06:47:54;;;;;;;6.28;2.05;;;14.60;53.90;;;;;;2620446;52;20942;-66
2023/10/11 06:50:24;;;;;;;7.75;2.47;;;14.70;54.20;;;;;;2367870;53;20977;-66
2023/10/11 06:52:50;;;;;;;7.40;2.47;;;14.40;54.10;;;;;;2620505;52;20978;-66
2023/10/11 06:55:18;;;;;;;5.15;2.15;;;14.60;54.40;;;;;;2368120;53;20906;-66
2023/10/11 06:57:50;;;;;;;6.70;2.60;;;14.70;54.60;;;;;;2368682;53;20997;-66
2023/10/11 07:06:10;;;;;;;5.03;2.17;;;14.80;54.90;;;;;;2586799;52;20940;-66
2023/10/11 07:08:48;;;;;;;5.03;2.35;;;14.80;55.00;;;;;;2586855;52;20991;-67
2023/10/11 07:11:41;;;;;;;4.97;2.30;;;14.90;55.20;;;;;;2347205;53;20909;-66
2023/10/11 07:14:18;;;;;;;5.60;2.47;;;15.00;55.60;;;;;;2341436;53;20936;-68
2023/10/11 07:16:44;;;;;;;7.75;2.97;;;15.00;55.40;;;;;;2347189;54;21110;-69
2023/10/11 07:19:15;;;;;;;6.15;2.50;;;15.10;55.60;;;;;;2352618;53;20961;-69
2023/10/11 07:24:41;;;;;;;5.45;2.58;;;15.20;55.80;;;;;;2340628;53;20995;-67
2023/10/11 07:27:13;;;;;;;4.72;2.22;;;15.30;55.90;;;;;;2341418;53;21528;-66
2023/10/11 07:29:45;;;;;;;5.50;2.20;;;15.30;56.00;;;;;;2349334;53;20958;-67
2023/10/11 07:32:15;;;;;;;10.15;3.30;;;15.40;56.20;;;;;;2351641;53;20964;-69
2023/10/11 07:34:42;;;;;;;5.90;2.85;;;15.50;56.30;;;;;;2319018;53;20928;-66
2023/10/11 07:37:12;;;;;;;9.65;2.85;;;15.60;56.40;;;;;;2347180;53;20940;-67
2023/10/11 07:39:41;;;;;;;7.45;2.83;;;15.70;56.80;;;;;;2352579;53;21019;-67
2023/10/11 07:42:07;;;;;;;6.65;3.20;;;15.80;56.80;;;;;;2586903;52;20972;-67
2023/10/11 07:44:38;;;;;;;5.15;2.60;;;15.80;56.80;;;;;;2340408;53;20925;-66
2023/10/11 07:47:15;;;;;;;7.05;3.03;;;15.90;56.90;;;;;;2597047;52;20984;-67
2023/10/11 07:49:45;;;;;;;7.62;3.25;;;16.00;57.00;;;;;;2344530;53;20988;-67
2023/10/11 07:52:19;;;;;;;6.07;2.85;;;16.20;57.20;;;;;;2340827;53;21374;-67
2023/10/11 07:54:45;;;;;;;9.60;2.97;;;16.20;57.10;;;;;;2586625;52;20941;-67
2023/10/11 07:57:15;;;;;;;6.90;2.85;;;16.30;57.10;;;;;;2365467;53;20973;-66
2023/10/11 07:59:42;;;;;;;5.85;2.90;;;16.50;57.30;;;;;;2336770;53;20956;-66
2023/10/11 08:02:25;;;;;;;7.20;3.20;;;16.60;57.40;;;;;;2340990;53;20929;-64
2023/10/11 08:05:05;;;;;;;6.78;2.95;;;16.70;57.50;;;;;;2341152;53;20961;-65
2023/10/11 08:07:32;;;;;;;4.80;2.50;;;16.80;58.00;;;;;;2348301;53;20999;-64
2023/10/11 08:10:10;;;;;;;5.57;2.90;;;16.90;57.60;;;;;;2350310;53;20980;-65
2023/10/11 08:12:38;;;;;;;8.50;2.85;;;17.00;57.60;;;;;;2342133;53;20952;-66
2023/10/11 08:15:10;;;;;;;5.85;3.10;;;17.10;57.70;;;;;;2586921;52;21471;-64
2023/10/11 08:17:37;;;;;;;4.72;2.75;;;17.20;57.80;;;;;;2339902;53;21453;-65
2023/10/11 08:20:15;;;;;;;8.05;3.25;;;17.30;57.80;;;;;;2340969;53;20913;-70
2023/10/11 08:22:42;;;;;;;7.55;3.28;;;17.40;57.80;;;;;;2341088;53;20944;-65
2023/10/11 08:25:12;;;;;;;7.07;3.08;;;17.60;58.00;;;;;;2341244;53;21391;-64
2023/10/11 08:27:39;;;;;;;5.97;2.65;;;17.70;58.00;;;;;;2340477;53;20987;-68
2023/10/11 08:30:15;;;;;;;5.95;2.75;;;17.90;58.10;;;;;;2341073;53;20972;-64
2023/10/11 08:32:48;;;;;;;6.40;3.10;;;18.00;58.20;;;;;;2341038;53;20976;-65
2023/10/11 08:35:26;;;;;;;6.45;2.80;;;18.10;58.10;;;;;;2587463;52;21014;-66
2023/10/11 08:37:53;;;;;;;7.25;2.45;;;18.30;58.30;;;;;;2587129;52;20928;-65
2023/10/11 08:40:23;;;;;;;6.20;2.58;;;18.40;58.30;;;;;;2350216;53;21782;-65
2023/10/11 08:42:50;;;;;;;6.25;2.42;;;18.60;58.40;;;;;;2594940;53;20936;-64
2023/10/11 08:46:00;;;;;;;6.93;2.58;;;18.70;58.50;;;;;;2340683;53;20932;-63
2023/10/11 08:48:28;;;;;;;5.25;2.12;;;18.90;58.70;;;;;;2340198;53;21029;-66
2023/10/11 08:50:58;;;;;;;4.82;2.37;;;19.10;58.60;;;;;;2340679;53;20925;-64
2023/10/11 08:53:27;;;;;;;6.05;2.17;;;19.30;58.70;;;;;;2586662;52;20980;-65
2023/10/11 08:55:56;;;;;;;5.72;2.28;;;19.40;58.80;;;;;;2341556;54;20944;-65
2023/10/11 08:58:23;;;;;;;6.40;2.20;;;19.60;58.90;;;;;;2603184;52;20977;-66
2023/10/11 09:00:52;;;;;;;8.50;2.58;;;19.80;58.90;;;;;;2615861;52;21392;-64
2023/10/11 09:03:18;;;;;;;8.68;2.70;;;19.90;58.90;;;;;;2341799;53;20922;-66
2023/10/11 09:05:47;;;;;;;5.05;2.28;;;20.10;59.00;;;;;;2366768;53;21619;-64
2023/10/11 09:08:22;;;;;;;6.82;2.62;;;20.30;59.00;;;;;;2369198;53;21305;-64
2023/10/11 09:10:51;;;;;;;4.75;1.80;;;20.40;59.00;;;;;;2369103;53;20950;-65
2023/10/11 09:13:26;;;;;;;5.30;2.00;;;20.60;58.90;;;;;;2620657;52;20994;-64
2023/10/11 09:15:54;;;;;;;9.32;2.83;;;20.80;58.90;;;;;;2368532;53;21426;-64
2023/10/11 09:18:21;;;;;;;5.15;1.87;;;20.90;58.70;;;;;;2368177;53;20922;-65
2023/10/11 09:20:55;;;;;;;6.50;2.10;;;21.10;58.70;;;;;;2368586;53;21013;-65
2023/10/11 09:23:36;;;;;;;6.53;2.65;;;21.30;58.60;;;;;;2620419;52;20910;-64
2023/10/11 09:26:05;;;;;;;6.20;1.98;;;21.40;58.50;;;;;;2367805;53;20886;-64
2023/10/11 09:28:33;;;;;;;8.25;2.70;;;21.60;58.30;;;;;;2368195;53;21450;-66
2023/10/11 09:31:15;;;;;;;11.18;2.30;;;21.70;58.20;;;;;;2368203;53;20950;-65
2023/10/11 09:33:48;;;;;;;10.60;2.78;;;21.90;58.10;;;;;;2620384;52;20947;-65
2023/10/11 09:36:16;;;;;;;5.55;2.08;;;22.10;58.10;;;;;;2367393;53;20954;-65
2023/10/11 09:38:43;;;;;;;6.97;2.40;;;22.20;57.90;;;;;;2367580;53;20958;-66
2023/10/11 09:41:10;;;;;;;6.95;2.25;;;22.40;57.90;;;;;;2368718;53;21853;-66
2023/10/11 09:43:43;;;;;;;6.28;1.87;;;22.50;57.60;;;;;;2368155;53;20934;-65
2023/10/11 09:46:14;;;;;;;6.47;2.30;;;22.70;57.40;;;;;;2368484;53;21902;-66
2023/10/11 09:48:43;;;;;;;4.80;2.40;;;22.80;57.20;;;;;;2621319;52;20938;-65
2023/10/11 09:51:13;;;;;;;5.40;2.28;;;22.90;57.00;;;;;;2368708;53;21415;-67
2023/10/11 09:53:49;;;;;;;6.65;2.37;;;23.10;56.90;;;;;;2367632;53;20946;-66
2023/10/11 09:59:29;;;;;;;5.65;2.62;;;23.20;56.80;;;;;;2368808;53;20926;-66
2023/10/11 10:02:21;;;;;;;5.12;1.95;;;23.50;56.50;;;;;;2368363;53;20919;-65
2023/10/11 10:05:05;;;;;;;5.07;1.77;;;23.60;56.00;;;;;;2368843;53;21337;-64
2023/10/11 10:07:42;;;;;;;6.57;2.35;;;23.80;55.60;;;;;;2368292;53;20934;-66
2023/10/11 10:10:25;;;;;;;6.43;2.15;;;23.90;55.80;;;;;;2353746;53;21538;-64
2023/10/11 10:12:59;;;;;;;6.15;2.40;;;24.00;55.50;;;;;;2365803;53;20946;-65
2023/10/11 10:15:32;;;;;;;7.68;2.67;;;24.10;55.30;;;;;;2620596;52;21847;-65
2023/10/11 10:18:20;;;;;;;7.03;2.83;;;24.20;55.40;;;;;;2367804;53;20966;-64
2023/10/11 10:20:56;;;;;;;5.70;2.22;;;24.40;55.00;;;;;;2610471;52;21002;-67
2023/10/11 10:23:26;;;;;;;5.35;1.92;;;24.40;55.20;;;;;;2355004;53;20989;-67
2023/10/11 10:27:52;;;;;;;5.68;1.80;;;24.50;54.90;;;;;;2368669;53;21432;-65
2023/10/11 10:30:27;;;;;;;8.02;2.30;;;24.70;54.50;;;;;;2368521;53;20914;-66
2023/10/11 10:33:18;;;;;;;7.60;2.42;;;24.80;54.60;;;;;;2368294;53;20962;-67
2023/10/11 10:35:44;;;;;;;5.10;2.08;;;24.90;54.00;;;;;;2368303;53;20926;-66
2023/10/11 10:38:11;;;;;;;10.30;2.12;;;25.00;54.40;;;;;;2620794;52;21148;-70
2023/10/11 10:40:37;;;;;;;5.68;2.10;;;25.10;54.20;;;;;;2368115;53;20965;-64
2023/10/11 10:43:27;;;;;;;7.70;2.30;;;25.20;54.00;;;;;;2361833;53;20982;-68
2023/10/11 10:45:59;;;;;;;6.00;2.05;;;25.20;53.40;;;;;;2611292;52;20950;-67
2023/10/11 10:48:30;;;;;;;7.40;2.15;;;25.30;53.60;;;;;;2368743;53;20918;-68
2023/10/11 10:51:04;;;;;;;5.43;2.35;;;25.50;53.60;;;;;;2368847;53;20977;-67
2023/10/11 10:53:50;;;;;;;5.87;2.22;;;25.50;53.30;;;;;;2368458;53;20919;-67
2023/10/11 10:56:26;;;;;;;4.70;2.65;;;25.60;52.60;;;;;;2620191;52;21494;-66
2023/10/11 10:59:11;;;;;;;5.53;2.45;;;25.70;52.70;;;;;;2368704;53;20934;-67
2023/10/11 11:01:53;;;;;;;4.57;2.15;;;25.80;52.20;;;;;;2369310;53;21424;-70
2023/10/11 11:04:22;;;;;;;9.70;2.50;;;25.90;52.30;;;;;;2367113;53;20922;-70
2023/10/11 11:06:52;;;;;;;6.10;2.50;;;25.90;52.50;;;;;;2368770;53;20942;-68
2023/10/11 11:09:19;;;;;;;5.35;2.10;;;26.00;52.30;;;;;;2368124;53;21006;-70
2023/10/11 11:11:46;;;;;;;3.87;1.75;;;26.10;52.10;;;;;;2349614;53;21137;-67
2023/10/11 11:14:13;;;;;;;5.47;2.10;;;26.20;51.90;;;;;;2615250;52;20969;-67
2023/10/11 11:16:44;;;;;;;4.78;1.98;;;26.20;51.80;;;;;;2620041;52;20974;-65
2023/10/11 11:19:25;;;;;;;5.05;2.20;;;26.30;51.70;;;;;;2591240;52;21724;-68
2023/10/11 11:22:19;;;;;;;4.57;1.83;;;26.40;51.30;;;;;;2368867;53;22028;-68
2023/10/11 11:24:52;;;;;;;4.18;1.80;;;26.40;50.60;;;;;;2368248;53;21678;-65
2023/10/11 11:27:30;;;;;;;5.90;2.20;;;26.50;51.30;;;;;;2368689;53;21392;-65
2023/10/11 11:30:02;;;;;;;5.90;2.60;;;26.60;51.00;;;;;;2368275;53;20939;-65
2023/10/11 11:32:37;;;;;;;10.20;2.87;;;26.70;51.00;;;;;;2621119;52;20942;-66
2023/10/11 11:35:31;;;;;;;6.43;2.62;;;26.70;50.50;;;;;;2620692;52;21702;-66
2023/10/11 11:38:02;;;;;;;4.60;2.10;;;26.80;50.30;;;;;;2368524;53;20985;-66
2023/10/11 11:40:47;;;;;;;8.13;2.35;;;26.90;50.50;;;;;;2369018;53;20942;-67
2023/10/11 11:43:17;;;;;;;7.15;2.33;;;26.90;50.40;;;;;;2368150;53;21398;-65
2023/10/11 11:45:45;;;;;;;8.57;2.40;;;27.00;50.30;;;;;;2598011;52;20938;-65
2023/10/11 11:48:13;;;;;;;7.22;1.95;;;27.00;50.00;;;;;;2363782;53;20933;-65
2023/10/11 11:50:40;;;;;;;5.35;2.87;;;27.10;49.80;;;;;;2367664;53;21743;-67
2023/10/11 11:53:06;;;;;;;6.90;3.00;;;27.10;49.80;;;;;;2372148;53;20990;-64
2023/10/11 11:55:34;;;;;;;6.93;2.87;;;27.20;49.80;;;;;;2368740;53;21054;-69
2023/10/11 11:58:10;;;;;;;7.62;2.55;;;27.20;49.50;;;;;;2350349;53;20985;-67
2023/10/11 12:00:45;;;;;;;7.25;2.92;;;27.30;49.30;;;;;;2367459;53;20934;-67
2023/10/11 12:03:11;;;;;;;5.10;2.70;;;27.30;49.20;;;;;;2620594;52;20914;-67
2023/10/11 12:05:40;;;;;;;8.77;2.75;;;27.40;49.20;;;;;;2367395;53;21414;-67
2023/10/11 12:08:20;;;;;;;5.45;2.45;;;27.40;49.10;;;;;;2621596;52;21006;-67
2023/10/11 12:10:50;;;;;;;4.80;2.15;;;27.50;48.90;;;;;;2371958;53;20994;-68
2023/10/11 12:13:23;;;;;;;4.68;2.03;;;27.50;48.80;;;;;;2346055;53;20973;-69
2023/10/11 12:15:55;;;;;;;5.90;2.10;;;27.60;48.80;;;;;;2368060;53;21041;-68
2023/10/11 12:18:32;;;;;;;5.65;2.00;;;27.60;48.20;;;;;;2368027;53;21468;-64
2023/10/11 12:21:00;;;;;;;6.70;2.25;;;27.70;48.10;;;;;;2348145;53;20954;-67
2023/10/11 12:23:27;;;;;;;5.32;2.00;;;27.70;48.10;;;;;;2371126;53;20950;-67
2023/10/11 12:25:56;;;;;;;7.55;2.15;;;27.80;47.90;;;;;;2620392;52;20943;-65
2023/10/11 12:28:27;;;;;;;4.50;1.70;;;27.80;47.80;;;;;;2367881;53;21029;-64
2023/10/11 12:30:54;;;;;;;5.57;1.90;;;27.90;47.30;;;;;;2367939;53;20926;-67
2023/10/11 12:33:21;;;;;;;4.75;1.98;;;27.90;47.40;;;;;;2620667;52;21298;-65
2023/10/11 12:35:49;;;;;;;5.93;1.90;;;27.90;47.30;;;;;;2367530;53;21372;-65
2023/10/11 12:38:15;;;;;;;4.65;2.00;;;28.00;47.10;;;;;;2368187;53;20983;-64
2023/10/11 12:40:44;;;;;;;5.25;1.70;;;28.00;46.90;;;;;;2368378;53;20969;-65
2023/10/11 12:43:11;;;;;;;4.50;1.75;;;28.00;46.70;;;;;;2358244;53;20988;-65
2023/10/11 12:45:42;;;;;;;5.05;2.00;;;28.10;46.80;;;;;;2340822;53;20948;-65
2023/10/11 12:48:10;;;;;;;4.75;1.70;;;28.20;46.60;;;;;;2341083;53;20925;-67
2023/10/11 12:50:37;;;;;;;4.25;1.95;;;28.20;46.60;;;;;;2340676;53;21419;-66
2023/10/11 12:53:11;;;;;;;4.60;1.73;;;28.20;46.70;;;;;;2340858;53;21872;-65
2023/10/11 12:55:45;;;;;;;5.93;1.73;;;28.30;46.60;;;;;;2340635;53;20936;-65
2023/10/11 12:58:13;;;;;;;5.20;1.98;;;28.40;46.30;;;;;;2341162;53;21175;-66
2023/10/11 13:00:51;;;;;;;6.35;2.10;;;28.40;46.60;;;;;;2621237;52;20961;-66
2023/10/11 13:03:25;;;;;;;5.40;2.15;;;28.50;46.30;;;;;;2368533;53;20970;-66
2023/10/11 13:05:52;;;;;;;4.28;1.75;;;28.50;46.30;;;;;;2368216;53;20981;-64
2023/10/11 13:08:24;;;;;;;5.47;2.35;;;28.60;46.40;;;;;;2368764;53;20926;-66
2023/10/11 13:10:51;;;;;;;5.32;1.90;;;28.60;46.30;;;;;;2368961;53;21029;-65
2023/10/11 13:13:18;;;;;;;4.70;2.12;;;28.70;46.20;;;;;;2368560;53;20915;-66
2023/10/11 13:15:55;;;;;;;5.03;1.75;;;28.70;46.10;;;;;;2368311;54;20942;-69
2023/10/11 13:18:26;;;;;;;5.95;2.12;;;28.80;45.80;;;;;;2368401;53;20986;-69
2023/10/11 13:20:56;;;;;;;4.43;1.85;;;28.80;45.40;;;;;;2369047;53;20927;-66
2023/10/11 13:23:28;;;;;;;4.50;1.73;;;28.90;45.30;;;;;;2368245;53;21010;-66
2023/10/11 13:26:07;;;;;;;5.32;1.80;;;29.00;45.50;;;;;;2368697;53;21821;-67
2023/10/11 13:28:37;;;;;;;6.60;2.30;;;29.00;45.30;;;;;;2368245;53;20936;-68
2023/10/11 13:31:04;;;;;;;4.30;1.60;;;29.10;45.30;;;;;;2620367;52;21467;-66
2023/10/11 13:33:32;;;;;;;6.20;1.87;;;29.10;45.30;;;;;;2620708;52;21021;-65
2023/10/11 13:35:59;;;;;;;6.87;2.20;;;29.10;45.10;;;;;;2620936;52;20923;-65
2023/10/11 13:38:25;;;;;;;6.50;2.20;;;29.20;45.00;;;;;;2368761;53;20915;-67
2023/10/11 13:40:53;;;;;;;5.62;1.83;;;29.20;44.60;;;;;;2368279;53;20954;-66
2023/10/11 13:43:22;;;;;;;6.50;1.85;;;29.10;44.30;;;;;;2352969;53;20990;-67
2023/10/11 13:45:56;;;;;;;5.85;2.00;;;29.30;44.40;;;;;;2613874;52;21738;-67
2023/10/11 13:48:27;;;;;;;4.43;1.50;;;29.30;44.40;;;;;;2369005;53;21217;-67
2023/10/11 13:50:54;;;;;;;4.22;1.50;;;29.40;44.40;;;;;;2369008;53;20926;-66
2023/10/11 13:53:24;;;;;;;3.97;1.52;;;29.50;44.40;;;;;;2369119;53;20990;-66
2023/10/11 13:55:51;;;;;;;6.95;1.90;;;29.50;44.40;;;;;;2591393;52;21026;-66
2023/10/11 13:58:19;;;;;;;4.18;1.70;;;29.50;44.50;;;;;;2368418;53;20935;-66
2023/10/11 14:03:45;;;;;;;4.45;1.87;;;29.60;44.50;;;;;;2339592;53;20934;-67
2023/10/11 14:06:31;;;;;;;5.35;1.67;;;29.60;44.40;;;;;;2353165;53;21179;-66
2023/10/11 14:09:14;;;;;;;4.60;1.95;;;29.70;44.20;;;;;;2351750;53;20986;-67